createdAt,value
2023-03-17T00:01:32.227Z,7.30
2023-03-17T00:04:16.233Z,7.30
2023-03-17T00:07:18.091Z,7.40
2023-03-17T00:09:49.300Z,7.30
2023-03-17T00:12:25.149Z,7.30
2023-03-17T00:15:02.158Z,7.20
2023-03-17T00:17:31.454Z,7.20
2023-03-17T00:20:14.947Z,7.10
2023-03-17T00:22:55.541Z,7.00
2023-03-17T00:25:31.956Z,7.00
2023-03-17T00:28:17.672Z,7.00
2023-03-17T00:30:48.814Z,7.00
2023-03-17T00:33:27.129Z,7.00
2023-03-17T00:36:07.906Z,6.90
2023-03-17T00:38:46.134Z,6.80
2023-03-17T00:41:22.977Z,6.70
2023-03-17T00:44:03.305Z,6.80
2023-03-17T00:46:38.139Z,6.80
2023-03-17T00:52:13.180Z,6.90
2023-03-17T00:54:50.778Z,6.90
2023-03-17T00:57:22.278Z,6.90
2023-03-17T01:00:01.664Z,6.90
2023-03-17T01:02:38.210Z,6.80
2023-03-17T01:05:13.793Z,6.80
2023-03-17T01:08:00.295Z,6.80
2023-03-17T01:10:35.328Z,6.80
2023-03-17T01:13:14.691Z,6.80
2023-03-17T01:16:04.064Z,6.70
2023-03-17T01:18:33.261Z,6.70
2023-03-17T01:21:03.605Z,6.60
2023-03-17T01:23:45.306Z,6.50
2023-03-17T01:26:22.602Z,6.50
2023-03-17T01:28:54.654Z,6.50
2023-03-17T01:31:34.263Z,6.40
2023-03-17T01:34:04.891Z,6.50
2023-03-17T01:36:38.593Z,6.50
2023-03-17T01:39:11.487Z,6.50
2023-03-17T01:41:57.350Z,6.50
2023-03-17T01:44:44.014Z,6.60
2023-03-17T01:47:21.710Z,6.60
2023-03-17T01:49:57.738Z,6.60
2023-03-17T01:52:31.845Z,6.60
2023-03-17T01:55:27.750Z,6.60
2023-03-17T01:58:05.617Z,6.50
2023-03-17T02:00:35.315Z,6.60
2023-03-17T02:03:09.592Z,6.50
2023-03-17T02:05:51.254Z,6.50
2023-03-17T02:08:22.394Z,6.50
2023-03-17T02:10:58.740Z,6.30
2023-03-17T02:13:30.093Z,6.30
2023-03-17T02:16:04.306Z,6.30
2023-03-17T02:18:38.333Z,6.20
2023-03-17T02:21:42.095Z,6.20
2023-03-17T02:24:30.260Z,6.20
2023-03-17T02:27:12.293Z,6.10
2023-03-17T02:29:51.844Z,6.10
2023-03-17T02:32:26.132Z,6.00
2023-03-17T02:35:17.694Z,6.00
2023-03-17T02:37:52.314Z,5.90
2023-03-17T02:40:30.535Z,5.90
2023-03-17T02:43:02.981Z,5.90
2023-03-17T02:45:32.546Z,5.90
2023-03-17T02:48:03.362Z,5.90
2023-03-17T02:50:39.686Z,5.90
2023-03-17T02:53:21.997Z,5.90
2023-03-17T02:55:57.894Z,6.00
2023-03-17T02:58:34.217Z,6.10
2023-03-17T03:01:09.347Z,6.20
2023-03-17T03:03:43.531Z,6.20
2023-03-17T03:06:16.209Z,6.20
2023-03-17T03:08:51.281Z,6.20
2023-03-17T03:11:33.396Z,6.20
2023-03-17T03:14:06.572Z,6.20
2023-03-17T03:16:46.410Z,6.20
2023-03-17T03:19:32.498Z,6.20
2023-03-17T03:22:11.247Z,6.10
2023-03-17T03:24:52.380Z,6.20
2023-03-17T03:27:28.018Z,6.20
2023-03-17T03:30:10.257Z,6.30
2023-03-17T03:32:44.579Z,6.30
2023-03-17T03:35:19.323Z,6.40
2023-03-17T03:37:55.695Z,6.30
2023-03-17T03:40:31.361Z,6.40
2023-03-17T03:43:22.994Z,6.40
2023-03-17T03:45:57.729Z,6.40
2023-03-17T03:48:30.948Z,6.50
2023-03-17T03:51:04.393Z,6.40
2023-03-17T03:53:35.082Z,6.40
2023-03-17T03:56:10.813Z,6.40
2023-03-17T03:58:46.282Z,6.40
2023-03-17T04:01:21.279Z,6.40
2023-03-17T04:04:03.039Z,6.50
2023-03-17T04:06:32.275Z,6.50
2023-03-17T04:09:03.687Z,6.50
2023-03-17T04:11:37.552Z,6.60
2023-03-17T04:14:07.002Z,6.60
2023-03-17T04:16:38.154Z,6.50
2023-03-17T04:19:09.910Z,6.60
2023-03-17T04:21:44.306Z,6.60
2023-03-17T04:24:15.393Z,6.60
2023-03-17T04:26:48.374Z,6.60
2023-03-17T04:29:22.494Z,6.60
2023-03-17T04:31:58.559Z,6.60
2023-03-17T04:34:45.772Z,6.70
2023-03-17T04:37:17.409Z,6.70
2023-03-17T04:39:53.558Z,6.70
2023-03-17T04:45:30.294Z,6.70
2023-03-17T04:48:17.792Z,6.70
2023-03-17T04:50:51.756Z,6.60
2023-03-17T04:53:21.527Z,6.60
2023-03-17T04:56:06.320Z,6.60
2023-03-17T04:58:39.971Z,6.60
2023-03-17T05:01:25.044Z,6.60
2023-03-17T05:04:07.121Z,6.60
2023-03-17T05:06:53.334Z,6.60
2023-03-17T05:09:33.669Z,6.70
2023-03-17T05:12:04.820Z,6.70
2023-03-17T05:14:47.236Z,6.70
2023-03-17T05:17:25.939Z,6.70
2023-03-17T05:19:58.306Z,6.70
2023-03-17T05:22:35.223Z,6.60
2023-03-17T05:25:23.610Z,6.60
2023-03-17T05:28:04.215Z,6.50
2023-03-17T05:30:41.051Z,6.50
2023-03-17T05:33:24.730Z,6.50
2023-03-17T05:36:01.538Z,6.50
2023-03-17T05:38:33.776Z,6.50
2023-03-17T05:41:05.722Z,6.40
2023-03-17T05:43:50.246Z,6.40
2023-03-17T05:46:25.258Z,6.40
2023-03-17T05:49:01.092Z,6.40
2023-03-17T05:51:34.332Z,6.30
2023-03-17T05:54:20.456Z,6.40
2023-03-17T05:56:55.979Z,6.40
2023-03-17T05:59:30.210Z,6.40
2023-03-17T06:02:03.316Z,6.30
2023-03-17T06:04:33.463Z,6.30
2023-03-17T06:07:07.326Z,6.20
2023-03-17T06:09:41.910Z,6.20
2023-03-17T06:12:11.449Z,6.10
2023-03-17T06:14:40.646Z,6.10
2023-03-17T06:17:14.037Z,6.10
2023-03-17T06:22:48.819Z,6.20
2023-03-17T06:25:34.137Z,6.30
2023-03-17T06:28:03.907Z,6.30
2023-03-17T06:30:40.774Z,6.30
2023-03-17T06:33:14.327Z,6.40
2023-03-17T06:35:45.568Z,6.30
2023-03-17T06:38:17.571Z,6.40
2023-03-17T06:40:52.077Z,6.40
2023-03-17T06:43:22.544Z,6.40
2023-03-17T06:45:54.751Z,6.40
2023-03-17T06:48:27.073Z,6.40
2023-03-17T06:50:57.838Z,6.40
2023-03-17T06:53:30.460Z,6.50
2023-03-17T06:56:08.300Z,6.50
2023-03-17T06:58:44.148Z,6.60
2023-03-17T07:01:31.451Z,6.60
2023-03-17T07:04:08.583Z,6.70
2023-03-17T07:06:37.899Z,6.70
2023-03-17T07:09:15.742Z,6.80
2023-03-17T07:11:47.119Z,6.80
2023-03-17T07:14:18.775Z,6.90
2023-03-17T07:16:50.798Z,6.90
2023-03-17T07:19:21.066Z,6.90
2023-03-17T07:21:49.897Z,7.00
2023-03-17T07:24:21.380Z,7.00
2023-03-17T07:26:50.376Z,7.10
2023-03-17T07:29:21.114Z,7.20
2023-03-17T07:31:52.490Z,7.30
2023-03-17T07:34:29.834Z,7.40
2023-03-17T07:37:01.578Z,7.50
2023-03-17T07:39:30.987Z,7.70
2023-03-17T07:42:02.842Z,7.80
2023-03-17T07:44:38.440Z,8.00
2023-03-17T07:47:07.435Z,8.20
2023-03-17T07:49:41.581Z,8.30
2023-03-17T07:52:12.749Z,8.50
2023-03-17T07:54:43.136Z,8.50
2023-03-17T07:57:16.725Z,8.70
2023-03-17T07:59:45.814Z,8.80
2023-03-17T08:02:17.456Z,8.90
2023-03-17T08:04:51.094Z,9.00
2023-03-17T08:07:19.862Z,9.20
2023-03-17T08:09:48.806Z,9.30
2023-03-17T08:12:17.697Z,9.40
2023-03-17T08:14:48.485Z,9.50
2023-03-17T08:17:19.395Z,9.60
2023-03-17T08:19:49.704Z,9.80
2023-03-17T08:22:19.446Z,9.90
2023-03-17T08:24:56.433Z,10.00
2023-03-17T08:27:32.531Z,10.10
2023-03-17T08:30:02.335Z,10.20
2023-03-17T08:32:34.431Z,10.20
2023-03-17T08:35:06.441Z,10.30
2023-03-17T08:37:35.097Z,10.30
2023-03-17T08:40:05.534Z,10.40
2023-03-17T08:42:34.268Z,10.50
2023-03-17T08:45:02.887Z,10.60
2023-03-17T08:47:31.655Z,10.70
2023-03-17T08:50:00.756Z,10.70
2023-03-17T08:52:31.028Z,10.80
2023-03-17T08:54:59.937Z,10.90
2023-03-17T08:57:30.836Z,10.90
2023-03-17T08:59:59.645Z,11.00
2023-03-17T09:02:36.643Z,11.10
2023-03-17T09:05:05.584Z,11.20
2023-03-17T09:07:37.007Z,11.30
2023-03-17T09:10:12.333Z,11.30
2023-03-17T09:12:52.868Z,11.50
2023-03-17T09:15:26.703Z,11.60
2023-03-17T09:17:55.630Z,11.70
2023-03-17T09:20:24.487Z,11.80
2023-03-17T09:22:54.915Z,11.90
2023-03-17T09:25:25.652Z,12.00
2023-03-17T09:27:54.656Z,12.00
2023-03-17T09:30:23.614Z,12.10
2023-03-17T09:32:54.211Z,12.30
2023-03-17T09:35:22.865Z,12.40
2023-03-17T09:37:51.629Z,12.60
2023-03-17T09:40:26.271Z,12.70
2023-03-17T09:43:07.188Z,12.90
2023-03-17T09:45:38.861Z,13.10
2023-03-17T09:48:43.322Z,13.20
2023-03-17T09:51:14.361Z,13.30
2023-03-17T09:53:50.528Z,13.50
2023-03-17T09:56:22.214Z,13.60
2023-03-17T09:58:55.261Z,13.70
2023-03-17T10:01:24.352Z,13.60
2023-03-17T10:03:53.299Z,13.50
2023-03-17T10:06:37.720Z,13.40
2023-03-17T10:09:17.932Z,13.30
2023-03-17T10:11:49.836Z,13.30
2023-03-17T10:14:35.216Z,13.40
2023-03-17T10:17:11.591Z,13.40
2023-03-17T10:19:43.937Z,13.50
2023-03-17T10:22:19.488Z,13.60
2023-03-17T10:24:52.968Z,13.70
2023-03-17T10:27:23.021Z,13.80
2023-03-17T10:29:51.791Z,13.90
2023-03-17T10:32:20.856Z,14.10
2023-03-17T10:34:50.045Z,14.20
2023-03-17T10:37:21.398Z,14.30
2023-03-17T10:39:52.676Z,14.70
2023-03-17T10:42:27.780Z,15.00
2023-03-17T10:44:58.663Z,15.40
2023-03-17T10:47:32.336Z,15.60
2023-03-17T10:50:05.653Z,15.70
2023-03-17T10:52:40.864Z,15.90
2023-03-17T10:55:14.341Z,16.00
2023-03-17T10:57:53.425Z,16.10
2023-03-17T11:00:23.360Z,16.10
2023-03-17T11:02:57.803Z,15.90
2023-03-17T11:05:29.012Z,15.80
2023-03-17T11:08:10.484Z,15.70
2023-03-17T11:10:40.893Z,15.60
2023-03-17T11:13:11.527Z,15.70
2023-03-17T11:15:47.385Z,15.90
2023-03-17T11:18:21.363Z,16.20
2023-03-17T11:20:56.826Z,16.50
2023-03-17T11:23:45.361Z,16.90
2023-03-17T11:26:30.162Z,17.10
2023-03-17T11:29:19.222Z,17.20
2023-03-17T11:31:57.679Z,17.10
2023-03-17T11:34:34.513Z,17.10
2023-03-17T11:37:12.052Z,16.90
2023-03-17T11:39:51.004Z,16.80
2023-03-17T11:42:23.701Z,16.80
2023-03-17T11:45:17.002Z,16.80
2023-03-17T11:48:06.150Z,16.90
2023-03-17T11:50:41.962Z,17.00
2023-03-17T11:53:27.806Z,17.00
2023-03-17T11:56:01.558Z,17.10
2023-03-17T11:58:36.058Z,17.10
2023-03-17T12:01:09.202Z,17.10
2023-03-17T12:03:43.683Z,17.10
2023-03-17T12:06:18.016Z,17.40
2023-03-17T12:08:52.590Z,17.50
2023-03-17T12:11:25.955Z,17.50
2023-03-17T12:13:58.568Z,17.60
2023-03-17T12:16:35.501Z,17.60
2023-03-17T12:19:11.458Z,17.60
2023-03-17T12:21:46.651Z,17.60
2023-03-17T12:24:20.129Z,17.30
2023-03-17T12:26:55.892Z,17.30
2023-03-17T12:29:38.525Z,17.60
2023-03-17T12:32:13.142Z,17.90
2023-03-17T12:34:46.470Z,18.10
2023-03-17T12:37:17.354Z,18.10
2023-03-17T12:39:53.238Z,18.20
2023-03-17T12:42:37.696Z,18.30
2023-03-17T12:45:22.696Z,18.40
2023-03-17T12:48:20.045Z,18.40
2023-03-17T12:51:06.524Z,18.50
2023-03-17T12:53:37.674Z,18.60
2023-03-17T12:56:13.193Z,18.70
2023-03-17T12:58:45.865Z,18.60
2023-03-17T13:01:26.725Z,18.70
2023-03-17T13:04:16.867Z,19.00
2023-03-17T13:06:54.746Z,19.10
2023-03-17T13:09:43.932Z,19.30
2023-03-17T13:13:06.567Z,19.10
2023-03-17T13:16:01.499Z,19.10
2023-03-17T13:19:07.556Z,19.30
2023-03-17T13:21:39.164Z,19.20
2023-03-17T13:24:47.518Z,19.30
2023-03-17T13:27:44.873Z,19.10
2023-03-17T13:30:43.469Z,18.90
2023-03-17T13:33:24.629Z,18.60
2023-03-17T13:36:05.323Z,18.50
2023-03-17T13:39:15.156Z,18.50
2023-03-17T13:42:01.095Z,18.60
2023-03-17T13:44:47.895Z,18.60
2023-03-17T13:47:29.573Z,18.50
2023-03-17T13:50:04.033Z,18.50
2023-03-17T13:52:35.702Z,18.50
2023-03-17T13:55:29.590Z,18.60
2023-03-17T13:58:23.700Z,18.60
2023-03-17T14:01:00.802Z,18.60
2023-03-17T14:03:36.850Z,18.60
2023-03-17T14:06:08.115Z,18.60
2023-03-17T14:08:44.020Z,18.70
2023-03-17T14:11:27.843Z,18.50
2023-03-17T14:14:32.463Z,18.50
2023-03-17T14:17:15.629Z,18.50
2023-03-17T14:20:01.607Z,18.60
2023-03-17T14:22:30.418Z,18.70
2023-03-17T14:25:03.885Z,18.90
2023-03-17T14:27:35.460Z,18.90
2023-03-17T14:30:20.001Z,18.90
2023-03-17T14:33:00.159Z,18.70
2023-03-17T14:35:32.375Z,18.60
2023-03-17T14:38:01.918Z,18.50
2023-03-17T14:40:36.822Z,18.30
2023-03-17T14:43:05.730Z,18.30
2023-03-17T14:45:49.330Z,18.30
2023-03-17T14:48:26.846Z,18.20
2023-03-17T14:51:04.975Z,18.20
2023-03-17T14:53:34.844Z,18.10
2023-03-17T14:56:04.373Z,18.00
2023-03-17T14:58:38.270Z,17.90
2023-03-17T15:01:09.384Z,17.90
2023-03-17T15:03:52.500Z,17.80
2023-03-17T15:06:26.104Z,17.80
2023-03-17T15:08:55.448Z,17.70
2023-03-17T15:11:26.744Z,17.60
2023-03-17T15:14:07.299Z,17.60
2023-03-17T15:16:37.505Z,17.60
2023-03-17T15:19:21.352Z,17.50
2023-03-17T15:21:50.665Z,17.50
2023-03-17T15:24:35.338Z,17.50
2023-03-17T15:27:16.808Z,17.30
2023-03-17T15:29:45.843Z,17.30
2023-03-17T15:32:17.389Z,17.20
2023-03-17T15:34:47.914Z,17.10
2023-03-17T15:37:18.933Z,17.00
2023-03-17T15:39:48.568Z,16.90
2023-03-17T15:42:19.723Z,16.80
2023-03-17T15:44:48.572Z,16.70
2023-03-17T15:47:21.668Z,16.60
2023-03-17T15:49:58.249Z,16.60
2023-03-17T15:52:29.033Z,16.60
2023-03-17T15:55:00.006Z,16.50
2023-03-17T15:57:31.512Z,16.40
2023-03-17T16:00:00.381Z,16.40
2023-03-17T16:02:31.958Z,16.20
2023-03-17T16:05:03.404Z,16.20
2023-03-17T16:07:32.312Z,16.10
2023-03-17T16:10:00.949Z,16.00
2023-03-17T16:12:29.637Z,16.00
2023-03-17T16:14:58.542Z,15.90
2023-03-17T16:17:32.218Z,15.90
2023-03-17T16:20:03.149Z,15.70
2023-03-17T16:22:41.830Z,15.60
2023-03-17T16:25:21.817Z,15.50
2023-03-17T16:27:50.917Z,15.50
2023-03-17T16:30:22.738Z,15.40
2023-03-17T16:32:52.065Z,15.30
2023-03-17T16:35:25.724Z,15.30
2023-03-17T16:37:55.249Z,15.20
2023-03-17T16:40:26.490Z,15.10
2023-03-17T16:42:55.585Z,15.10
2023-03-17T16:45:32.711Z,15.00
2023-03-17T16:48:03.625Z,14.90
2023-03-17T16:50:34.653Z,14.80
2023-03-17T16:53:03.419Z,14.80
2023-03-17T16:55:32.374Z,14.70
2023-03-17T16:58:08.388Z,14.60
2023-03-17T17:00:39.735Z,14.50
2023-03-17T17:03:13.746Z,14.50
2023-03-17T17:05:45.251Z,14.40
2023-03-17T17:08:14.524Z,14.30
2023-03-17T17:10:45.186Z,14.30
2023-03-17T17:13:16.703Z,14.20
2023-03-17T17:15:45.771Z,14.10
2023-03-17T17:18:17.049Z,14.00
2023-03-17T17:20:48.778Z,14.00
2023-03-17T17:23:19.318Z,14.00
2023-03-17T17:25:48.631Z,13.90
2023-03-17T17:28:19.565Z,13.80
2023-03-17T17:30:48.287Z,13.80
2023-03-17T17:33:19.802Z,13.70
2023-03-17T17:35:52.139Z,13.70
2023-03-17T17:38:23.607Z,13.70
2023-03-17T17:40:52.295Z,13.70
2023-03-17T17:43:21.210Z,13.60
2023-03-17T17:45:50.448Z,13.60
2023-03-17T17:48:24.613Z,13.50
2023-03-17T17:50:58.225Z,13.50
2023-03-17T17:53:27.464Z,13.40
2023-03-17T17:56:04.109Z,13.30
2023-03-17T17:58:33.205Z,13.20
2023-03-17T18:01:04.549Z,13.10
2023-03-17T18:03:40.936Z,13.10
2023-03-17T18:06:13.199Z,13.00
2023-03-17T18:08:43.823Z,13.00
2023-03-17T18:11:12.959Z,13.00
2023-03-17T18:13:41.793Z,13.00
2023-03-17T18:16:16.942Z,12.90
2023-03-17T18:18:48.239Z,12.90
2023-03-17T18:21:18.740Z,12.80
2023-03-17T18:23:48.833Z,12.70
2023-03-17T18:26:20.281Z,12.70
2023-03-17T18:28:51.604Z,12.70
2023-03-17T18:31:23.808Z,12.60
2023-03-17T18:34:01.575Z,12.60
2023-03-17T18:36:31.918Z,12.60
2023-03-17T18:39:03.940Z,12.60
2023-03-17T18:41:36.805Z,12.50
2023-03-17T18:44:07.532Z,12.40
2023-03-17T18:46:36.541Z,12.30
2023-03-17T18:49:05.798Z,12.30
2023-03-17T18:51:45.754Z,12.20
2023-03-17T18:54:17.308Z,12.20
2023-03-17T18:56:49.243Z,12.10
2023-03-17T18:59:18.283Z,12.20
2023-03-17T19:01:47.413Z,12.20
2023-03-17T19:04:18.460Z,12.20
2023-03-17T19:06:50.665Z,12.10
2023-03-17T19:09:19.698Z,12.00
2023-03-17T19:11:48.436Z,12.00
2023-03-17T19:14:21.573Z,11.90
2023-03-17T19:16:52.267Z,11.90
2023-03-17T19:19:21.576Z,11.90
2023-03-17T19:21:51.975Z,11.90
2023-03-17T19:24:21.145Z,11.90
2023-03-17T19:26:50.080Z,11.80
2023-03-17T19:29:25.292Z,11.90
2023-03-17T19:31:57.033Z,11.90
2023-03-17T19:34:27.233Z,11.90
2023-03-17T19:36:59.190Z,11.90
2023-03-17T19:39:31.414Z,11.80
2023-03-17T19:42:01.140Z,11.90
2023-03-17T19:44:32.757Z,11.80
2023-03-17T19:47:05.092Z,11.70
2023-03-17T19:49:37.713Z,11.80
2023-03-17T19:52:09.621Z,11.80
2023-03-17T19:54:43.743Z,11.80
2023-03-17T19:57:13.331Z,11.80
2023-03-17T19:59:46.090Z,11.80
2023-03-17T20:02:16.768Z,11.80
2023-03-17T20:04:51.913Z,11.80
2023-03-17T20:07:22.394Z,11.70
2023-03-17T20:09:52.640Z,11.70
2023-03-17T20:12:22.184Z,11.80
2023-03-17T20:14:54.033Z,11.90
2023-03-17T20:17:24.645Z,12.00
2023-03-17T20:19:53.449Z,11.90
2023-03-17T20:22:23.673Z,12.00
2023-03-17T20:24:56.170Z,12.00
2023-03-17T20:27:27.746Z,12.10
2023-03-17T20:30:00.535Z,12.10
2023-03-17T20:33:01.177Z,12.20
2023-03-17T20:35:32.961Z,12.20
2023-03-17T20:38:06.269Z,12.20
2023-03-17T20:40:40.119Z,12.20
2023-03-17T20:43:09.482Z,12.20
2023-03-17T20:45:39.232Z,12.30
2023-03-17T20:48:10.800Z,12.40
2023-03-17T20:50:42.729Z,12.40
2023-03-17T20:53:12.843Z,12.50
2023-03-17T20:55:50.215Z,12.60
2023-03-17T20:58:22.126Z,12.60
2023-03-17T21:00:51.176Z,12.80
2023-03-17T21:03:20.945Z,12.90
2023-03-17T21:05:49.730Z,12.90
2023-03-17T21:08:20.594Z,12.90
2023-03-17T21:10:49.750Z,13.00
2023-03-17T21:13:19.150Z,13.10
2023-03-17T21:15:48.771Z,13.10
2023-03-17T21:18:19.775Z,13.00
2023-03-17T21:20:48.716Z,13.00
2023-03-17T21:23:17.760Z,13.00
2023-03-17T21:25:47.927Z,13.00
2023-03-17T21:28:16.845Z,13.00
2023-03-17T21:30:45.787Z,13.00
2023-03-17T21:33:15.520Z,13.00
2023-03-17T21:35:44.454Z,13.00
2023-03-17T21:38:13.228Z,13.00
2023-03-17T21:40:42.971Z,13.00
2023-03-17T21:43:15.534Z,13.00
2023-03-17T21:45:50.760Z,13.00
2023-03-17T21:48:20.691Z,13.00
2023-03-17T21:50:51.262Z,13.00
2023-03-17T21:53:20.251Z,13.00
2023-03-17T21:55:52.613Z,13.00
2023-03-17T21:58:24.472Z,12.90
2023-03-17T22:00:53.880Z,12.90
2023-03-17T22:03:22.798Z,12.90
2023-03-17T22:05:54.840Z,12.90
2023-03-17T22:08:26.449Z,12.90
2023-03-17T22:10:58.521Z,12.90
2023-03-17T22:13:29.196Z,12.90
2023-03-17T22:16:05.076Z,12.80
2023-03-17T22:18:34.589Z,12.80
2023-03-17T22:21:06.513Z,12.80
2023-03-17T22:23:41.289Z,12.80
2023-03-17T22:26:14.975Z,12.80
2023-03-17T22:28:55.846Z,12.70
2023-03-17T22:31:38.093Z,12.70
2023-03-17T22:34:12.341Z,12.70
2023-03-17T22:36:46.598Z,12.70
2023-03-17T22:39:21.087Z,12.60
2023-03-17T22:41:57.110Z,12.70
2023-03-17T22:44:27.926Z,12.60
2023-03-17T22:47:06.456Z,12.60
2023-03-17T22:49:37.316Z,12.60
2023-03-17T22:52:06.745Z,12.60
2023-03-17T22:54:38.003Z,12.60
2023-03-17T22:57:09.790Z,12.50
2023-03-17T22:59:42.991Z,12.50
2023-03-17T23:02:13.204Z,12.40
2023-03-17T23:04:42.102Z,12.50
2023-03-17T23:07:11.471Z,12.50
2023-03-17T23:09:42.085Z,12.50
2023-03-17T23:12:13.477Z,12.50
2023-03-17T23:14:43.912Z,12.60
2023-03-17T23:17:13.256Z,12.60
2023-03-17T23:19:42.247Z,12.60
2023-03-17T23:22:11.177Z,12.50
2023-03-17T23:24:42.001Z,12.50
2023-03-17T23:27:13.596Z,12.50
2023-03-17T23:29:44.653Z,12.50
2023-03-17T23:32:14.096Z,12.50
2023-03-17T23:34:45.057Z,12.50
2023-03-17T23:37:22.552Z,12.40
2023-03-17T23:39:51.421Z,12.40
2023-03-17T23:42:23.024Z,12.30
2023-03-17T23:44:53.674Z,12.40
2023-03-17T23:47:27.756Z,12.30
2023-03-17T23:49:57.396Z,12.20
2023-03-17T23:52:28.182Z,12.20
2023-03-17T23:54:57.809Z,12.20
2023-03-17T23:57:26.669Z,12.20
